CDT,Max TemperatureF,Mean TemperatureF,Min TemperatureF,Max Dew PointF,MeanDew PointF,Min DewpointF,Max Humidity, Mean Humidity, Min Humidity, Max Sea Level PressureIn, Mean Sea Level PressureIn, Min Sea Level PressureIn, Max VisibilityMiles, Mean VisibilityMiles, Min VisibilityMiles, Max Wind SpeedMPH, Mean Wind SpeedMPH, Max Gust SpeedMPH,PrecipitationIn, CloudCover, Events, WindDirDegrees
2014-4-1,77,69,61,65,63,58,97,81,64,30.09,30.03,29.98,10,10,8,12,7,17,0.00,7,,157
2014-4-2,80,74,67,69,66,64,93,80,67,30.01,29.96,29.89,10,10,8,18,11,27,T,6,,157
2014-4-3,83,77,70,72,69,66,93,76,58,29.93,29.87,29.82,10,9,5,21,10,27,T,7,Rain,167
2014-4-4,73,65,57,70,60,42,93,67,41,30.06,29.93,29.78,10,8,1,18,9,27,0.75,6,Rain-Thunderstorm,316
2014-4-5,68,60,52,46,44,41,77,60,42,30.12,30.04,29.97,10,10,10,14,8,20,0.01,2,,42
2014-4-6,62,56,50,61,53,45,100,86,72,29.98,29.76,29.62,10,6,1,24,9,32,1.11,8,Rain-Thunderstorm,43
2014-4-7,63,57,51,54,51,48,100,84,67,29.96,29.79,29.65,10,8,2,16,8,21,T,7,Rain,308
2014-4-8,69,58,46,54,47,42,100,73,45,30.14,29.96,29.86,10,9,3,32,7,44,0.07,3,Rain-Thunderstorm,303
2014-4-9,73,57,40,46,41,34,93,59,25,30.29,30.20,30.15,10,10,10,14,3,17,0.00,0,,267
2014-4-10,78,63,48,53,50,46,100,70,39,30.19,30.14,30.07,10,10,8,20,9,26,0.00,0,,170
2014-4-11,79,66,53,59,55,52,100,75,50,30.17,30.10,30.04,10,10,7,16,8,24,0.00,3,,156
2014-4-12,80,68,55,65,58,37,100,71,42,30.12,30.04,29.95,10,9,2,17,10,29,0.00,3,,158
2014-4-13,80,73,65,68,65,61,100,80,60,29.96,29.88,29.76,10,8,2,20,10,28,0.29,7,Rain-Thunderstorm,164
2014-4-14,80,63,46,70,58,39,100,85,69,30.07,29.86,29.74,10,6,1,33,14,43,0.66,8,Rain-Thunderstorm,279
2014-4-15,61,50,39,39,33,27,79,54,29,30.27,30.19,30.10,10,10,10,22,11,35,0.00,2,,6
2014-4-16,64,51,37,46,38,33,93,67,40,30.26,30.18,30.07,10,10,6,16,5,21,0.00,0,,113
2014-4-17,64,55,46,55,50,44,100,80,60,30.21,30.16,30.13,10,10,7,12,3,15,T,2,Rain,77
2014-4-18,76,64,51,59,55,50,100,77,54,30.19,30.15,30.09,10,7,1,13,5,18,0.03,6,Rain-Thunderstorm,353
2014-4-19,80,67,53,58,53,40,100,70,39,30.22,30.15,30.10,10,9,6,8,2,13,0.00,0,,210
2014-4-20,84,68,52,59,55,52,100,68,36,30.20,30.13,30.05,10,9,1,10,3,13,0.00,0,,163
2014-4-21,84,71,57,59,56,55,93,67,40,30.10,30.04,29.94,10,10,7,16,7,21,0.00,2,,186
2014-4-22,83,72,60,65,63,60,100,74,47,29.99,29.95,29.89,10,8,3,15,6,20,0.07,5,Rain-Thunderstorm,287
2014-4-23,84,70,56,62,57,53,100,69,37,30.00,29.93,29.86,10,6,1,10,3,14,0.00,1,,139
2014-4-24,84,73,61,66,63,58,93,69,45,29.93,29.88,29.81,10,7,0,23,9,28,0.00,5,Fog,183
2014-4-25,84,70,56,67,56,43,93,59,24,30.03,29.95,29.89,10,8,1,15,4,18,0.00,1,,327
2014-4-26,87,71,54,69,63,53,93,72,51,29.94,29.89,29.82,10,10,8,17,7,23,0.00,2,,152
2014-4-27,91,82,73,72,69,65,87,66,44,29.81,29.69,29.60,10,9,8,24,13,34,T,5,Rain-Thunderstorm,166
2014-4-28,89,75,61,73,71,60,93,73,52,29.71,29.61,29.53,9,5,0,23,9,30,0.80,7,Fog-Rain-Thunderstorm,192
2014-4-29,84,71,57,72,63,50,100,73,45,29.86,29.70,29.62,10,5,0,17,6,23,0.00,4,Fog,338
2014-4-30,71,60,49,50,44,40,83,60,37,30.13,30.01,29.88,10,10,10,21,9,26,0.00,0,,326